Date,TemperatureHighF,TemperatureAvgF,TemperatureLowF,DewpointHighF,DewpointAvgF,DewpointLowF,HumidityHigh,HumidityAvg,HumidityLow,PressureMaxIn,PressureMinIn,WindSpeedMaxMPH,WindSpeedAvgMPH,GustSpeedMaxMPH,PrecipitationSumIn
2013-1-1,38,34,24,15,6,-7,40,31,24,31.01,29.35,22,3,22,0.00
2013-1-2,32,26,20,11,-1,-7,44,30,23,31.01,29.53,15,3,15,0.00
2013-1-3,33,27,18,9,1,-2,53,33,23,31.01,29.59,20,2,20,0.00
2013-1-4,38,34,30,13,6,3,40,31,24,31.01,30.92,22,3,22,0.00
2013-1-5,42,34,27,21,6,2,61,31,23,31.01,29.56,33,3,33,0.00
2013-1-6,46,37,29,29,14,8,73,39,22,31.01,29.68,14,2,14,0.00
2013-1-7,44,36,26,20,9,1,50,33,20,31.01,29.71,19,2,19,0.00
2013-1-8,48,35,23,19,13,7,60,41,22,31.01,30.92,14,1,14,0.00
2013-1-9,46,37,27,28,18,13,76,46,30,31.01,29.65,11,1,11,0.00
2013-1-10,44,41,33,16,12,7,43,30,28,31.01,29.74,20,3,20,0.00
2013-1-11,40,36,31,34,19,11,79,51,33,31.01,31.01,9,1,9,0.28
2013-1-12,47,44,40,41,38,34,84,80,73,31.01,31.01,12,1,12,0.00
2013-1-13,47,45,44,45,42,39,93,89,82,31.01,31.01,10,1,10,0.00
2013-1-14,55,47,38,53,33,8,96,65,25,31.01,29.74,21,2,21,0.04
2013-1-16,34,33,30,28,26,22,80,77,70,29.62,29.38,12,1,12,0.04
2013-1-17,42,38,34,30,14,7,81,41,28,29.62,29.41,24,3,24,0.24
2013-1-18,29,26,22,5,-4,-9,41,27,21,30.00,29.59,20,3,20,0.24
2013-1-19,47,37,23,12,6,-3,37,28,22,29.91,29.44,27,6,27,0.08
2013-1-20,52,40,28,15,7,-7,46,26,16,29.56,29.23,26,6,26,0.00
2013-1-21,30,26,22,14,-1,-10,53,31,21,29.62,29.35,11,2,11,0.00
2013-1-22,26,18,11,3,-10,-19,38,28,20,29.71,29.35,21,5,21,0.00
2013-1-23,19,12,8,-3,-16,-21,40,27,20,29.77,29.68,20,3,20,0.00
2013-1-24,22,14,7,-3,-12,-17,45,30,20,29.91,29.65,28,5,28,0.00
2013-1-25,23,16,11,3,-10,-18,52,31,22,29.91,29.59,20,3,20,0.00
2013-1-26,27,19,12,13,-4,-13,67,38,21,29.88,29.56,14,3,14,0.00
2013-1-27,33,24,14,1,-4,-10,45,29,20,30.03,29.88,22,2,22,0.00
2013-1-28,35,30,22,29,18,-2,79,62,33,30.00,29.53,15,2,15,0.08
2013-1-29,53,40,33,46,28,21,88,66,29,29.65,29.53,15,1,15,0.28
2013-1-30,57,45,37,54,41,30,93,86,75,29.62,28.88,10,2,10,0.43
2013-1-31,61,44,28,57,16,-7,94,37,17,29.29,28.59,30,9,30,0.83
2013-2-1,31,26,22,5,-5,-8,43,26,20,29.74,29.29,16,4,16,0.00
2013-2-2,28,22,17,17,-2,-9,66,34,21,29.80,29.59,23,3,23,0.83
2013-2-3,31,24,18,22,8,0,73,51,30,29.59,29.32,11,1,11,0.83
2013-2-4,30,26,21,16,-4,-9,64,29,20,29.47,29.32,22,3,22,0.83
2013-2-5,32,27,24,15,7,-5,54,43,26,29.50,29.41,11,1,11,0.00
2013-2-6,39,32,24,27,8,-9,80,42,20,29.88,29.44,24,3,24,0.00
2013-2-7,31,26,20,2,-6,-11,39,25,20,30.03,29.85,14,2,14,0.00
2013-2-8,33,30,27,28,18,0,85,62,31,29.85,29.21,34,8,34,0.00
2013-2-9,31,26,18,23,5,-12,80,46,20,29.85,29.29,28,8,28,0.00
2013-2-10,38,25,14,8,-4,-12,44,28,19,29.97,29.83,15,2,15,0.00
2013-2-11,41,33,26,34,18,2,78,55,34,29.85,29.23,9,1,9,0.28
2013-2-12,44,39,33,22,10,4,50,29,23,29.50,29.29,19,3,19,0.04
2013-2-13,42,33,29,18,10,6,53,39,23,29.47,29.21,10,0,10,0.00
2013-2-14,45,36,28,30,15,5,76,44,20,29.53,29.23,14,1,14,0.08
2013-2-15,54,42,30,28,13,4,64,33,16,29.53,29.44,15,2,15,0.00
2013-2-16,37,34,28,22,12,-5,61,42,23,29.50,29.26,20,4,20,0.08
2013-2-17,31,24,15,-4,-9,-18,26,22,20,29.50,29.21,47,9,47,0.00
2013-2-18,34,25,15,12,-8,-15,43,24,20,29.74,29.50,31,5,31,0.00
2013-2-19,42,34,23,34,13,-3,76,45,23,29.71,29.21,26,2,26,0.24
2013-2-20,36,29,24,7,-2,-9,33,25,20,29.50,29.23,26,6,26,0.00
2013-2-21,33,26,22,-1,-4,-8,33,26,20,29.83,29.47,30,7,30,0.00
2013-2-22,37,30,22,12,4,-3,46,33,24,29.91,29.80,18,4,18,0.00
2013-2-23,36,36,33,31,26,12,80,71,40,29.80,29.35,16,2,16,0.20
2013-2-24,46,37,32,34,20,5,81,54,28,29.50,29.29,19,4,19,0.16
2013-2-25,43,37,30,20,10,5,45,33,26,29.77,29.50,15,2,15,0.16
2013-2-26,42,37,30,25,15,10,67,41,32,29.83,29.41,28,5,28,0.16
2013-2-27,46,38,35,39,29,22,77,68,46,29.44,29.06,25,6,25,1.22
2013-2-28,49,41,36,38,20,12,76,43,24,29.15,29.09,14,1,14,0.51
2013-3-1,43,38,33,20,13,9,55,37,28,29.29,29.15,13,4,13,0.51
2013-3-2,38,34,30,12,8,6,45,34,29,29.29,29.23,20,5,20,0.51
2013-3-3,38,31,26,8,2,-2,41,29,21,29.29,29.21,22,6,22,0.51
2013-3-4,39,32,26,6,2,-2,35,28,21,29.44,29.29,29,7,29,0.51
2013-3-5,47,37,30,10,6,3,35,27,19,29.56,29.44,25,5,25,0.51
2013-3-6,41,38,36,23,13,8,52,35,29,29.50,29.41,42,10,42,0.00
2013-3-7,38,35,33,24,16,8,69,46,31,29.62,29.47,35,7,35,0.04
2013-3-8,40,35,31,29,22,15,78,62,39,29.74,29.53,20,3,20,0.31
2013-3-9,54,41,32,15,8,1,41,27,15,29.85,29.71,22,4,22,0.04
2013-3-10,51,39,28,24,14,5,64,37,24,29.91,29.83,16,4,16,0.00
2013-3-11,53,45,37,41,28,19,75,54,28,29.85,29.62,23,4,23,0.00
2013-3-12,50,50,49,41,40,38,72,69,64,29.62,29.50,14,5,14,0.04
2013-3-13,48,40,36,14,9,4,36,28,17,29.41,29.32,20,2,20,0.04
2013-3-14,40,34,27,9,2,-8,33,25,18,29.47,29.38,34,6,34,0.00
2013-3-15,44,36,27,11,0,-7,30,22,18,29.50,29.23,22,4,22,0.00
2013-3-16,38,34,31,23,10,0,61,39,22,29.44,29.32,17,1,17,0.00
2013-3-17,37,31,26,20,4,-4,59,32,19,29.83,29.44,22,3,22,0.04
2013-3-18,34,28,22,24,3,-9,77,38,20,29.94,29.56,19,4,19,0.00
2013-3-19,44,36,30,32,25,11,82,67,37,29.56,29.23,16,4,16,0.47
2013-3-20,42,36,30,12,3,-2,42,26,18,29.41,29.29,19,3,19,0.00
2013-3-21,38,33,29,12,0,-7,44,25,19,29.38,29.15,16,4,16,0.00
2013-3-22,40,33,26,8,1,-7,34,25,20,29.41,29.26,18,3,18,0.00
2013-3-23,44,37,32,12,3,-2,40,24,18,29.47,29.35,25,6,25,0.00
2013-3-24,46,38,30,14,4,-1,45,24,17,29.47,29.23,22,4,22,0.00
2013-3-25,42,38,37,20,8,4,47,28,23,29.24,29.00,16,3,16,0.00
2013-3-26,50,42,34,21,10,4,49,29,19,29.38,29.15,21,3,21,0.00
2013-3-27,51,42,33,16,9,4,37,27,16,29.50,29.38,24,4,24,0.00
2013-3-28,49,42,36,15,12,9,39,30,21,29.65,29.47,22,5,22,0.00
2013-3-29,54,45,39,14,10,6,31,24,16,29.68,29.59,20,4,20,0.00
2013-3-30,58,45,31,20,11,1,56,27,14,29.68,29.59,20,2,20,0.00
2013-3-31,54,43,31,37,16,6,73,37,18,29.65,29.23,40,4,40,0.12
2013-4-1,63,46,35,43,23,-3,82,46,17,29.44,29.15,23,4,23,0.00
2013-4-2,43,36,30,2,-1,-5,23,20,18,29.62,29.44,29,5,29,0.00
2013-4-3,46,37,31,4,-1,-5,25,20,17,29.83,29.59,24,6,24,0.00
2013-4-4,54,41,28,9,3,-6,32,20,15,29.91,29.59,23,6,23,0.00
2013-4-5,62,48,38,17,7,0,39,19,14,29.59,29.26,19,6,19,0.00
2013-4-6,53,42,33,8,2,-4,30,19,16,29.83,29.53,23,5,23,0.00
2013-4-7,58,47,35,26,15,5,39,28,15,29.83,29.50,33,7,33,0.00
2013-4-8,75,58,43,33,23,15,61,29,13,29.62,29.50,20,3,20,0.00
2013-4-9,80,66,51,34,24,16,46,23,12,29.53,29.44,28,3,28,0.00
2013-4-10,75,62,52,51,31,14,78,35,15,29.47,29.35,25,4,25,0.51
2013-4-11,62,56,44,52,40,18,80,60,22,29.59,29.32,25,3,25,0.00
2013-4-12,46,42,39,35,28,16,78,58,32,29.56,29.26,29,7,29,0.55
2013-4-13,58,48,39,36,22,9,78,44,17,29.50,29.29,16,3,16,0.04
2013-4-14,56,50,44,24,13,6,39,23,15,29.74,29.50,26,4,26,0.00
2013-4-15,58,48,39,18,10,4,39,22,16,29.88,29.74,18,5,18,0.00
2013-4-16,63,56,46,38,29,16,43,36,28,29.88,29.65,22,4,22,0.00
2013-4-17,70,61,52,44,23,10,56,25,14,29.83,29.65,18,4,18,0.00
2013-4-18,60,53,46,47,26,10,75,37,17,29.85,29.65,26,4,26,0.00
2013-4-19,76,64,55,55,46,37,85,56,25,29.65,29.18,31,7,31,0.59
2013-4-20,59,52,42,45,18,1,67,30,14,29.85,29.23,23,4,23,0.12
2013-4-21,53,44,34,8,4,-2,30,19,16,30.15,29.85,23,5,23,0.00
2013-4-22,42,40,39,18,7,0,37,26,18,30.15,30.03,5,0,5,0.00
2013-4-24,58,56,55,37,34,32,48,43,36,29.41,29.38,9,1,9,0.00
2013-4-25,59,58,56,39,35,28,49,43,33,29.44,29.38,12,2,12,0.00
2013-4-30,54,54,52,32,32,32,46,44,43,29.77,29.74,0,0,0,0.00
2013-5-1,67,54,40,25,17,11,40,25,13,30.00,29.88,15,3,15,0.00
2013-5-2,74,58,41,44,24,16,78,33,13,30.00,29.83,18,2,18,0.00
2013-5-3,62,54,48,26,22,14,41,30,16,29.91,29.85,10,2,10,0.00
2013-5-5,64,52,41,30,22,14,58,34,16,29.83,29.74,16,3,16,0.00
2013-5-6,69,55,41,34,30,25,63,41,22,29.80,29.68,14,2,14,0.00
2013-5-7,73,61,46,46,34,27,72,40,22,29.71,29.62,16,2,16,0.00
2013-5-8,65,60,54,57,49,42,82,67,45,29.65,29.50,16,2,16,1.57
2013-5-9,68,59,53,56,43,31,83,60,26,29.56,29.41,10,0,10,0.35
2013-5-10,80,66,53,55,38,26,83,42,15,29.53,29.44,13,1,13,0.00
2013-5-11,71,65,62,59,52,42,80,65,39,29.44,29.23,14,1,14,0.59
2013-5-12,68,60,48,55,24,5,78,28,13,29.47,29.21,18,3,18,0.00
2013-5-13,56,48,39,28,11,6,54,23,15,29.65,29.47,18,2,18,0.00
2013-5-14,61,49,36,28,14,6,66,27,14,29.68,29.56,14,2,14,0.00
2013-5-15,69,55,39,41,27,12,47,34,24,29.59,29.21,10,1,10,0.00
2013-5-16,71,60,56,42,37,17,58,45,14,29.38,29.26,6,0,6,0.00
2013-5-17,62,58,54,25,22,20,33,25,19,29.74,29.71,0,0,0,0.00
2013-5-18,66,57,47,40,31,25,53,38,23,29.83,29.74,10,0,10,0.00
2013-5-19,59,57,55,52,48,37,81,72,48,29.85,29.71,11,1,11,0.47
2013-5-20,80,67,57,63,49,40,86,58,25,29.71,29.50,10,0,10,0.04
2013-5-21,89,75,63,56,48,40,78,43,19,29.53,29.38,11,1,11,0.00
2013-5-22,82,70,61,58,52,47,74,55,30,29.47,29.35,18,1,18,0.00
2013-5-23,74,69,67,68,61,57,83,76,63,29.44,29.29,16,0,16,1.97
2013-5-24,67,62,45,62,55,27,84,80,47,29.50,29.23,14,0,14,0.83
2013-5-25,51,48,44,38,30,20,74,51,30,29.56,29.44,22,4,22,0.47
2013-5-26,66,54,44,27,19,11,44,27,15,29.74,29.50,21,3,21,0.00
2013-5-27,76,60,42,27,22,15,51,26,13,29.80,29.65,14,1,14,0.00
2013-5-28,66,56,48,51,38,23,79,52,24,29.77,29.68,9,0,9,0.39
2013-5-29,83,68,57,67,51,42,89,60,24,29.68,29.53,10,0,10,0.04
2013-5-30,92,79,66,60,43,30,73,33,12,29.68,29.59,10,0,10,0.00
2013-5-31,93,80,66,59,42,29,69,31,12,29.68,29.53,15,0,15,0.00
2013-6-2,71,70,70,61,59,56,72,67,60,29.38,29.35,0,0,0,0.00
2013-6-3,80,71,64,64,50,26,82,52,21,29.44,29.32,13,1,13,0.24
2013-6-4,75,64,54,27,22,17,33,21,13,29.65,29.44,14,3,14,0.00
2013-6-5,76,63,48,30,22,15,42,22,13,29.74,29.65,11,1,11,0.00
2013-6-6,61,61,60,51,51,50,71,70,67,29.59,29.56,7,0,7,0.08
2013-6-7,61,60,59,56,53,51,83,77,71,29.56,29.21,16,2,16,3.23
2013-6-8,75,66,57,56,46,38,82,53,26,29.59,29.15,23,2,23,0.08
2013-6-9,81,69,58,58,42,31,80,43,17,29.71,29.59,10,1,10,0.08
2013-6-10,69,64,61,57,50,42,82,62,48,29.71,29.38,20,2,20,0.79
2013-6-11,79,69,61,68,50,37,89,55,24,29.38,29.18,16,1,16,0.20
2013-6-12,67,66,58,41,39,37,49,37,34,29.38,29.23,10,0,10,0.00
2013-6-13,62,59,55,54,49,39,81,69,49,29.38,29.06,22,2,22,1.14
2013-6-14,72,61,53,47,38,29,76,47,23,29.44,29.12,23,2,23,0.47
2013-6-15,63,63,63,38,38,38,39,39,39,29.44,29.44,0,0,0,0.00
2013-6-16,80,68,55,47,40,32,66,38,20,29.53,29.32,16,1,16,0.00
2013-6-17,87,74,62,61,44,33,79,39,16,29.47,29.38,13,1,13,0.00
2013-6-18,83,68,61,58,48,38,81,52,21,29.44,29.35,10,0,10,0.59
2013-6-19,77,66,57,54,34,20,78,37,13,29.71,29.44,18,2,18,0.04
2013-6-20,81,67,52,51,36,27,74,36,15,29.80,29.71,10,0,10,0.00
2013-6-21,84,71,57,46,38,32,61,32,17,29.85,29.77,12,0,12,0.00
2013-6-22,85,72,58,47,39,36,63,32,19,29.80,29.65,10,1,10,0.00
2013-6-23,88,74,63,52,44,39,50,37,19,29.74,29.59,9,1,9,0.00
2013-6-24,93,80,71,66,49,40,78,38,17,29.62,29.50,10,0,10,0.00
2013-6-25,91,80,67,61,47,40,70,35,17,29.56,29.35,11,1,11,0.00
2013-6-26,83,77,71,53,48,41,53,35,24,29.41,29.32,15,0,15,0.00
2013-6-27,86,75,67,66,53,45,81,49,25,29.38,29.06,13,2,13,1.46
2013-6-28,86,77,71,67,53,39,81,49,20,29.12,29.03,14,1,14,0.16
2013-6-29,86,75,68,60,48,36,72,42,18,29.26,29.03,15,0,15,0.00
2013-6-30,69,67,66,56,55,53,69,64,58,29.29,29.26,0,0,0,0.00
2013-7-1,75,74,73,67,66,65,79,77,75,29.59,29.53,6,0,6,0.00
2013-7-2,82,76,73,70,62,52,79,64,35,29.74,29.59,6,0,6,0.35
2013-7-3,84,77,71,64,58,50,75,54,32,29.80,29.71,6,0,6,0.00
2013-7-4,89,80,73,68,56,43,80,47,21,29.80,29.71,10,0,10,0.00
2013-7-5,76,74,73,58,57,56,59,54,50,29.77,29.74,0,0,0,0.00
2013-7-7,74,74,74,65,65,64,73,73,72,29.53,29.53,5,0,5,0.00
2013-7-8,89,79,68,67,51,38,82,44,19,29.59,29.53,10,0,10,0.04
2013-7-9,82,72,69,62,55,44,74,56,28,29.62,29.56,7,0,7,0.00
2013-7-10,87,79,72,62,53,44,65,42,24,29.56,29.35,15,1,15,0.00
2013-7-11,85,77,69,61,53,40,61,46,21,29.47,29.35,6,0,6,0.04
2013-7-12,76,72,67,61,48,41,78,44,31,29.65,29.47,14,3,14,0.16
2013-7-13,79,71,66,66,62,57,86,73,48,29.80,29.65,14,1,14,0.24
2013-7-14,92,78,72,71,59,42,83,57,18,29.80,29.80,9,0,9,0.00
2013-7-15,94,83,73,63,52,41,67,40,17,29.80,29.68,14,1,14,0.00
2013-7-16,93,82,72,55,46,36,53,32,14,29.77,29.68,15,1,15,0.00
2013-7-17,96,83,71,66,50,37,73,37,14,29.74,29.59,11,0,11,0.00
2013-7-18,98,85,75,61,52,42,60,37,16,29.62,29.50,11,1,11,0.00
2013-7-19,97,86,75,69,53,43,76,37,16,29.53,29.35,11,1,11,0.00
2013-7-20,93,82,75,56,50,41,51,34,18,29.38,29.29,7,1,7,0.00
2013-7-21,88,78,71,57,44,36,55,32,18,29.50,29.38,14,1,14,0.00
2013-7-22,84,74,68,68,56,46,80,55,29,29.50,29.35,13,1,13,0.91
2013-7-23,87,77,72,71,60,44,85,60,23,29.35,29.12,7,0,7,1.14
2013-7-24,80,73,65,63,46,32,79,43,21,29.50,29.18,11,1,11,0.00
2013-7-25,67,64,61,47,36,27,53,36,27,29.62,29.50,16,2,16,0.00
2013-7-26,84,72,64,48,40,34,56,34,19,29.59,29.53,13,1,13,0.00
2013-7-27,86,72,60,57,43,34,75,38,16,29.59,29.50,16,0,16,0.00
2013-7-28,78,70,65,64,54,43,80,59,32,29.53,29.47,7,0,7,0.39
2013-7-29,84,73,65,64,47,27,85,46,14,29.65,29.50,7,0,7,0.04
2013-7-30,65,64,63,45,43,38,52,47,38,29.68,29.65,0,0,0,0.00
2013-7-31,81,70,59,59,44,35,79,43,20,29.71,29.59,10,0,10,0.00
2013-8-1,72,67,64,62,56,47,82,69,42,29.59,29.38,6,0,6,0.35
2013-8-2,84,73,62,62,48,32,85,49,16,29.47,29.35,11,1,11,0.04
2013-8-3,80,69,64,63,51,38,77,55,25,29.47,29.38,10,0,10,0.12
2013-8-4,80,69,58,56,40,29,80,41,17,29.53,29.41,16,2,16,0.00
2013-8-5,79,70,60,41,32,25,48,27,15,29.59,29.53,10,0,10,0.00
2013-8-6,81,68,54,52,37,28,73,37,15,29.68,29.59,11,1,11,0.00
2013-8-7,77,69,63,62,49,42,75,50,31,29.71,29.62,14,0,14,0.12
2013-8-8,82,72,69,67,62,50,82,72,33,29.62,29.56,7,0,7,0.39
2013-8-9,84,75,71,72,64,50,86,70,31,29.56,29.35,9,1,9,0.28
2013-8-10,84,74,63,65,44,31,80,39,16,29.62,29.41,16,1,16,0.00
2013-8-11,78,69,57,47,38,30,60,35,20,29.68,29.59,6,0,6,0.00
2013-8-12,84,72,65,60,45,32,76,43,16,29.59,29.47,10,0,10,0.00
2013-8-13,79,70,65,65,56,45,81,64,31,29.50,29.29,14,0,14,1.22
2013-8-14,66,62,60,59,48,32,78,61,32,29.59,29.29,10,1,10,0.00
2013-8-15,77,64,52,50,34,25,74,37,18,29.71,29.59,14,1,14,0.00
2013-8-16,81,66,54,54,38,25,78,41,15,29.77,29.68,10,0,10,0.00
2013-8-17,81,68,56,58,41,30,80,43,17,29.83,29.77,12,1,12,0.00
2013-8-18,75,67,60,53,46,38,67,49,27,29.83,29.68,9,0,9,0.00
2013-8-19,80,70,61,60,48,36,81,50,22,29.68,29.59,11,0,11,0.00
2013-8-20,87,74,63,63,48,37,81,46,18,29.68,29.59,11,1,11,0.00
2013-8-21,89,75,62,62,46,31,79,43,13,29.74,29.62,10,0,10,0.00
2013-8-22,78,71,67,68,60,50,81,70,45,29.62,29.44,6,0,6,0.28
2013-8-23,75,69,65,60,50,35,72,50,23,29.68,29.44,16,1,16,0.00
2013-8-24,79,67,57,41,32,24,51,30,15,29.88,29.68,11,2,11,0.00
2013-8-25,84,68,55,56,37,23,83,39,11,29.94,29.77,10,0,10,0.00
2013-8-26,78,71,65,60,44,37,72,40,30,29.80,29.47,10,0,10,0.12
2013-8-27,86,75,69,64,54,41,83,53,22,29.47,29.35,20,1,20,0.00
2013-8-28,86,72,66,67,59,44,81,67,24,29.47,29.41,10,0,10,0.24
2013-8-29,79,71,67,66,56,45,85,63,31,29.59,29.44,10,1,10,0.00
2013-8-30,86,75,68,59,51,40,70,48,20,29.59,29.41,12,0,12,0.00
2013-8-31,86,77,70,64,57,49,75,52,29,29.41,29.35,10,0,10,0.00
2013-9-1,82,76,72,70,62,55,78,65,40,29.41,29.35,11,0,11,0.47
2013-9-2,81,74,70,71,63,48,84,69,33,29.35,29.26,7,0,7,0.00
2013-9-3,80,71,63,65,47,32,83,49,20,29.44,29.26,13,1,13,0.20
2013-9-4,83,69,58,53,40,27,76,40,14,29.56,29.44,11,1,11,0.00
2013-9-5,75,66,54,54,36,18,71,39,13,29.71,29.47,15,1,15,0.00
2013-9-6,71,59,50,33,25,18,45,28,14,29.80,29.68,15,1,15,0.00
2013-9-7,80,63,48,47,32,22,76,38,12,29.68,29.44,7,0,7,0.00
2013-9-8,80,68,58,47,35,18,58,32,13,29.65,29.38,18,2,18,0.00
2013-9-9,72,61,48,42,31,25,58,33,19,29.80,29.65,10,1,10,0.00
2013-9-10,86,73,64,63,53,42,80,52,29,29.71,29.59,13,0,13,0.00
2013-9-11,94,81,71,69,56,46,81,48,20,29.68,29.53,11,1,11,0.00
2013-9-12,80,73,68,68,56,50,79,56,42,29.56,29.23,18,0,18,1.18
2013-9-13,74,68,63,62,48,31,83,55,23,29.32,29.21,24,2,24,0.04
2013-9-15,58,56,55,37,34,31,50,44,36,29.65,29.65,0,0,0,0.04
2013-9-16,72,61,54,52,38,29,75,47,22,29.80,29.59,17,1,17,0.04
2013-9-17,65,53,45,30,23,18,51,32,18,29.97,29.80,19,2,19,0.04
2013-9-18,72,56,42,45,29,22,77,41,16,29.91,29.74,7,0,7,0.04
2013-9-19,78,60,46,49,33,24,78,42,15,29.74,29.62,10,0,10,0.04
2013-9-20,80,63,49,52,38,33,79,45,20,29.65,29.53,11,0,11,0.04
2013-9-21,75,64,52,60,48,41,79,58,31,29.56,29.21,9,1,9,0.67
2013-9-22,66,60,52,56,36,21,83,46,23,29.47,29.21,18,2,18,0.31
2013-9-23,65,54,46,28,24,21,47,32,20,29.59,29.47,16,2,16,0.04
2013-9-24,72,55,41,39,26,19,72,36,14,29.62,29.44,15,1,15,0.04
2013-9-25,71,58,45,37,29,23,63,36,17,29.50,29.44,10,0,10,0.00
2013-9-26,69,58,48,49,38,31,75,49,25,29.65,29.50,14,1,14,0.00
2013-9-27,66,58,48,45,35,30,73,45,27,29.83,29.65,14,1,14,0.00
2013-9-28,72,60,50,47,36,29,73,42,21,29.88,29.80,16,1,16,0.00
2013-9-29,72,58,48,52,38,29,80,50,22,29.80,29.62,11,0,11,0.00
2013-9-30,74,58,48,53,37,27,78,49,18,29.65,29.53,12,0,12,0.00
2013-10-1,80,63,50,56,40,30,81,49,17,29.56,29.44,11,0,11,0.00
2013-10-2,84,67,55,58,44,36,81,48,19,29.56,29.47,14,1,14,0.00
2013-10-3,65,62,61,49,46,41,63,56,43,29.62,29.56,0,0,0,0.00
2013-10-4,84,68,59,61,51,37,79,58,20,29.62,29.53,10,0,10,0.00
2013-10-5,78,69,65,60,53,43,82,60,30,29.65,29.56,11,0,11,0.00
2013-10-6,67,66,65,63,59,52,88,79,60,29.65,29.59,10,1,10,0.08
2013-10-7,76,66,57,65,56,29,89,72,34,29.59,29.29,16,2,16,0.55
2013-10-8,66,56,48,42,30,23,73,41,20,29.88,29.53,16,1,16,0.00
2013-10-9,61,54,48,33,27,21,47,36,25,29.97,29.85,20,2,20,0.00
2013-10-10,60,53,52,36,32,29,46,43,38,29.85,29.65,19,4,19,0.00
2013-10-11,66,63,59,46,39,34,53,42,37,29.65,29.59,24,5,24,0.00
2013-10-12,72,63,58,42,29,18,48,28,14,29.85,29.65,22,5,22,0.00
2013-10-13,64,57,50,38,33,29,61,42,27,29.94,29.85,18,3,18,0.00
2013-10-14,68,56,50,46,35,27,73,49,23,29.91,29.80,11,0,11,0.00
2013-10-15,72,57,47,50,36,29,80,48,22,29.83,29.68,14,1,14,0.00
2013-10-16,66,58,50,50,42,37,73,56,36,29.68,29.47,7,0,7,0.00
2013-10-17,74,65,60,59,48,33,82,58,23,29.47,29.23,7,0,7,0.00
2013-10-18,67,60,49,56,29,18,75,34,17,29.53,29.23,23,2,23,0.00
2013-10-19,63,53,42,43,29,21,72,43,21,29.53,29.29,14,0,14,0.04
2013-10-20,63,52,45,43,25,11,74,39,16,29.62,29.32,15,2,15,0.00
2013-10-21,67,52,39,37,23,14,72,36,15,29.71,29.53,10,1,10,0.00
2013-10-22,62,52,44,47,29,18,80,43,27,29.53,29.29,11,0,11,0.00
2013-10-23,55,45,36,34,21,16,72,40,23,29.35,29.18,10,1,10,0.00
2013-10-24,55,45,38,24,15,5,53,31,18,29.56,29.29,16,2,16,0.00
2013-10-25,52,43,34,23,15,7,55,34,18,29.77,29.56,21,2,21,0.00
2013-10-26,55,44,32,34,17,9,79,38,18,29.77,29.44,20,2,20,0.00
2013-10-27,58,49,39,25,14,8,39,25,17,29.68,29.38,14,1,14,0.00
2013-10-28,62,47,34,38,18,11,81,35,16,29.85,29.68,15,1,15,0.00
2013-10-29,52,45,38,25,15,10,47,31,21,29.97,29.85,14,1,14,0.00
2013-10-30,56,46,37,34,27,18,63,47,32,29.88,29.74,7,0,7,0.00
2013-10-31,63,53,42,56,45,31,83,75,45,29.80,29.35,15,1,15,0.00
2013-11-1,70,64,52,54,41,28,73,46,22,29.35,29.09,23,4,23,0.24
2013-11-2,68,55,46,46,30,18,76,44,20,29.35,29.18,11,1,11,0.00
2013-11-3,49,43,32,30,15,3,51,33,22,30.00,29.35,19,4,19,0.00
2013-11-4,46,36,30,9,3,-3,37,25,17,30.21,30.00,28,3,28,0.24
2013-11-5,54,43,32,27,18,8,51,36,26,30.21,30.03,10,1,10,0.24
2013-11-6,59,51,41,42,31,24,79,48,26,30.03,29.80,13,1,13,0.24
2013-11-7,60,52,40,51,35,14,74,53,30,29.80,29.35,15,2,15,0.24
2013-11-8,47,42,37,20,12,6,48,31,19,29.77,29.35,18,2,18,0.24
2013-11-9,50,42,33,24,12,6,51,31,19,29.83,29.53,16,2,16,0.24
2013-11-10,44,41,38,18,16,13,42,35,29,29.53,29.44,8,0,8,0.00
2013-11-11,50,50,49,14,13,11,24,23,21,29.56,29.50,15,3,15,0.00
2013-11-12,50,42,29,16,9,-2,37,26,22,29.83,29.47,20,3,20,0.00
2013-11-13,38,30,27,8,1,-4,36,29,19,29.88,29.80,20,2,20,0.00
2013-11-14,29,27,26,6,4,2,41,37,32,29.80,29.74,0,0,0,0.00
2013-11-15,58,48,36,13,7,2,31,20,14,29.80,29.68,14,2,14,0.00
2013-11-16,61,48,38,33,22,9,63,37,22,29.85,29.77,14,2,14,0.00
2013-11-17,60,53,44,54,46,33,86,78,63,29.83,29.32,16,2,16,0.00
2013-11-18,65,58,48,57,25,4,84,34,14,29.35,29.15,28,5,28,0.28
2013-11-19,48,41,33,7,4,-1,23,21,17,29.88,29.35,23,6,23,0.00
2013-11-20,43,34,26,3,-1,-7,31,22,18,30.12,29.88,22,4,22,0.00
2013-11-21,49,38,23,23,12,-2,52,34,24,30.15,29.91,10,2,10,0.00
2013-11-22,58,50,45,43,30,21,72,47,35,29.91,29.44,14,1,14,0.00
2013-11-23,53,40,27,33,7,-8,49,26,17,29.59,29.44,27,6,27,0.04
2013-11-24,28,24,20,-7,-10,-12,24,22,21,29.88,29.53,31,7,31,0.00
2013-11-25,35,28,19,4,-5,-12,41,24,20,30.00,29.83,16,5,16,0.00
2013-11-26,39,34,31,35,10,-5,85,41,20,29.85,29.35,15,2,15,0.47
2013-11-27,59,44,32,57,31,4,93,64,30,29.35,28.91,26,6,26,2.32
2013-11-28,34,30,26,9,-1,-8,41,27,20,30.00,29.26,29,2,29,0.00
2013-11-29,36,30,24,14,2,-4,50,31,24,30.27,29.97,14,2,14,0.00
2013-11-30,33,28,18,9,0,-6,36,29,23,30.27,29.91,15,2,15,0.00
2013-12-1,48,38,29,19,14,9,56,38,27,29.91,29.53,10,0,10,0.00
2013-12-2,46,38,31,21,17,14,52,43,28,29.53,29.44,6,0,6,0.00
2013-12-3,54,39,30,29,18,13,73,46,25,29.53,29.41,10,0,10,0.00
2013-12-4,51,42,31,30,21,17,70,45,28,29.68,29.53,11,1,11,0.00
2013-12-5,58,50,45,55,43,24,90,78,41,29.65,29.47,10,0,10,0.04
2013-12-6,56,46,37,54,38,27,93,75,53,29.68,29.41,16,2,16,0.83
2013-12-7,38,35,29,30,14,-1,74,46,24,30.03,29.62,18,2,18,0.00
2013-12-8,31,28,25,20,4,-2,70,36,28,30.12,29.91,15,2,15,0.00
2013-12-9,40,33,29,35,27,21,86,77,70,29.91,29.50,19,2,19,0.04
2013-12-10,36,32,23,32,25,6,85,76,46,29.62,29.41,10,0,10,0.00
2013-12-11,33,26,20,10,4,-1,54,39,25,29.83,29.62,16,1,16,0.00
2013-12-12,25,23,19,1,-2,-9,36,33,27,29.77,29.68,14,1,14,0.00
2013-12-13,34,26,15,6,-3,-11,36,29,22,29.85,29.65,26,2,26,0.04
2013-12-14,26,21,17,16,6,1,71,51,35,30.03,29.35,20,6,20,0.00
2013-12-15,37,32,24,30,19,4,81,61,33,29.35,29.06,32,3,32,0.00
2013-12-16,30,24,14,8,-4,-9,41,28,20,29.74,29.35,14,3,14,0.00
2013-12-17,22,15,13,7,-2,-7,54,45,39,29.74,29.47,10,0,10,0.00
2013-12-18,36,27,17,20,6,2,67,43,27,29.68,29.44,19,2,19,0.00
2013-12-19,47,33,20,22,9,2,55,37,22,29.71,29.56,10,1,10,0.12
2013-12-20,49,40,32,22,15,12,54,36,24,29.65,29.50,12,1,12,0.20
2013-12-21,57,49,39,41,28,17,66,46,29,29.53,29.44,16,1,16,0.12
2013-12-22,67,61,53,57,45,37,83,57,36,29.50,29.35,17,4,17,0.12
2013-12-23,58,55,38,52,46,11,81,72,33,29.68,29.47,24,1,24,0.63
2013-12-24,39,33,22,15,6,-7,52,32,23,29.88,29.65,22,4,22,0.63
2013-12-25,37,22,15,20,-6,-11,50,29,21,30.06,29.88,19,3,19,0.63
2013-12-26,35,28,21,14,7,0,50,41,34,29.94,29.68,14,1,14,0.63
2013-12-27,38,32,25,10,6,2,45,34,24,29.85,29.80,15,1,15,0.63
2013-12-28,52,38,25,18,10,5,58,35,18,29.80,29.59,16,1,16,0.63
2013-12-29,42,38,34,37,23,10,84,56,36,29.59,29.00,19,3,19,1.02
2013-12-30,40,33,20,27,10,-9,64,40,25,29.74,29.21,14,3,14,0.63
2013-12-31,30,24,18,10,-3,-10,44,30,23,29.80,29.59,25,3,25,0.63
2014-1-1,36,26,18,16,2,-10,57,35,25,29.94,29.77,19,1,19,0.63
2014-1-2,28,22,11,7,4,-3,55,46,35,29.77,29.23,20,8,20,0.00